Time;durP1;ratioP1;P1;durP2;ratioP2;P2;SDS_P1;SDS_P2;PMS_P1;PMS_P2;Temp;Humidity;BMP_temperature;BMP_pressure;BME280_temperature;BME280_humidity;BME280_pressure;Samples;Min_cycle;Max_cycle;Signal;HPM_P1;HPM_P2
2023/04/10 00:01:27;;;;;;;20.40;10.02;;;10.80;99.90;;;;;;5093111;28;20028;-74
2023/04/10 00:03:53;;;;;;;21.75;11.70;;;10.80;99.90;;;;;;5092803;28;20027;-74
2023/04/10 00:06:18;;;;;;;21.13;11.25;;;10.80;99.90;;;;;;5092874;28;20107;-74
2023/04/10 00:08:44;;;;;;;25.42;12.75;;;10.80;99.90;;;;;;5092590;28;20066;-74
2023/04/10 00:11:09;;;;;;;22.70;10.95;;;10.70;99.90;;;;;;5093112;28;20111;-74
2023/04/10 00:13:35;;;;;;;19.77;10.35;;;10.80;99.90;;;;;;5092572;28;20472;-74
2023/04/10 00:16:00;;;;;;;21.92;10.90;;;10.80;99.90;;;;;;5092925;28;20024;-74
2023/04/10 00:18:26;;;;;;;21.13;10.57;;;10.70;99.90;;;;;;5092505;28;20032;-74
2023/04/10 00:20:51;;;;;;;21.25;10.68;;;10.70;99.90;;;;;;5092902;28;20051;-74
2023/04/10 00:23:17;;;;;;;22.60;10.90;;;10.80;99.90;;;;;;5095703;28;20028;-74
2023/04/10 00:25:42;;;;;;;22.67;11.32;;;10.70;99.90;;;;;;5096693;28;20467;-74
2023/04/10 00:28:08;;;;;;;18.90;9.85;;;10.70;99.90;;;;;;5096936;28;20119;-74
2023/04/10 00:30:34;;;;;;;22.80;11.48;;;10.70;99.90;;;;;;5096732;28;20562;-74
2023/04/10 00:33:00;;;;;;;22.30;10.50;;;10.70;99.90;;;;;;5096502;28;20024;-74
2023/04/10 00:35:25;;;;;;;22.45;11.60;;;10.70;99.90;;;;;;5096728;28;20020;-74
2023/04/10 00:37:53;;;;;;;22.95;12.23;;;10.70;99.90;;;;;;5096217;28;20055;-74
2023/04/10 00:40:19;;;;;;;24.38;11.60;;;10.70;99.90;;;;;;5096811;28;20028;-74
2023/04/10 00:42:44;;;;;;;21.73;10.60;;;10.70;99.90;;;;;;5096471;28;20093;-74
2023/04/10 00:45:10;;;;;;;21.88;10.65;;;10.70;99.90;;;;;;5096059;28;20528;-74
2023/04/10 00:47:36;;;;;;;21.40;11.13;;;10.70;99.90;;;;;;5096111;28;20032;-74
2023/04/10 00:50:04;;;;;;;20.35;10.35;;;10.70;99.90;;;;;;5096091;28;20027;-74
2023/04/10 00:52:31;;;;;;;22.02;11.38;;;10.70;99.90;;;;;;5095914;28;20028;-74
2023/04/10 00:54:57;;;;;;;21.17;10.40;;;10.70;99.90;;;;;;5096279;28;20028;-74
2023/04/10 00:57:23;;;;;;;20.02;10.75;;;10.70;99.90;;;;;;5096243;28;20123;-74
2023/04/10 00:59:50;;;;;;;21.52;11.18;;;10.70;99.90;;;;;;5095844;28;20036;-74
2023/04/10 01:02:16;;;;;;;23.58;12.00;;;10.60;99.90;;;;;;5095948;28;20047;-74
2023/04/10 01:04:42;;;;;;;22.45;11.18;;;10.60;99.90;;;;;;5095750;28;20484;-74
2023/04/10 01:07:37;;;;;;;22.13;11.48;;;10.60;99.90;;;;;;5095895;28;20031;-74
2023/04/10 01:10:17;;;;;;;21.73;11.27;;;10.60;99.90;;;;;;5095679;28;20019;-75
2023/04/10 01:12:59;;;;;;;20.80;10.15;;;10.60;99.90;;;;;;5095981;28;20035;-74
2023/04/10 01:15:29;;;;;;;21.10;10.30;;;10.50;99.90;;;;;;5095686;28;20036;-74
2023/04/10 01:18:10;;;;;;;21.02;10.80;;;10.50;99.90;;;;;;5095395;28;20510;-74
2023/04/10 01:20:38;;;;;;;21.85;11.27;;;10.40;99.90;;;;;;5095782;28;20085;-75
2023/04/10 01:23:30;;;;;;;22.83;10.80;;;10.40;99.90;;;;;;5095670;28;20020;-74
2023/04/10 01:25:58;;;;;;;25.50;12.02;;;10.40;99.90;;;;;;5094994;28;20369;-74
2023/04/10 01:29:02;;;;;;;20.63;11.10;;;10.30;99.90;;;;;;5095222;28;20028;-74
2023/04/10 01:31:44;;;;;;;22.48;10.75;;;10.40;99.90;;;;;;5095854;28;20129;-74
2023/04/10 01:34:19;;;;;;;;;;;10.30;99.90;;;;;;5095039;28;20028;-73
2023/04/10 01:36:57;;;;;;;22.30;10.93;;;10.30;99.90;;;;;;5094022;28;19915;-73
2023/04/10 01:39:24;;;;;;;20.52;10.85;;;10.20;99.90;;;;;;5095156;28;20027;-73
2023/04/10 01:41:52;;;;;;;20.92;10.70;;;10.20;99.90;;;;;;5095366;28;20017;-73
2023/04/10 01:44:24;;;;;;;24.10;11.88;;;10.20;99.90;;;;;;5095451;28;20476;-73
2023/04/10 01:46:50;;;;;;;;;;;10.20;99.90;;;;;;5095613;28;20024;-73
2023/04/10 01:49:17;;;;;;;21.10;11.00;;;10.10;99.90;;;;;;5094981;28;19957;-73
2023/04/10 01:51:44;;;;;;;22.33;10.73;;;10.00;99.90;;;;;;5095389;28;20028;-73
2023/04/10 01:54:10;;;;;;;20.48;10.27;;;10.00;99.90;;;;;;5094921;28;20149;-73
2023/04/10 01:56:37;;;;;;;23.05;11.27;;;10.10;99.90;;;;;;5095076;28;20494;-73
2023/04/10 01:59:02;;;;;;;21.88;10.40;;;10.10;99.90;;;;;;5094903;28;20106;-74
2023/04/10 02:01:28;;;;;;;23.35;11.13;;;10.10;99.90;;;;;;5094859;28;20411;-73
2023/04/10 02:03:54;;;;;;;21.75;10.75;;;10.00;99.90;;;;;;5094698;28;20115;-73
2023/04/10 02:06:41;;;;;;;20.90;11.57;;;10.00;99.90;;;;;;5094825;28;20460;-73
2023/04/10 02:09:22;;;;;;;23.65;10.75;;;10.00;99.90;;;;;;5094538;28;20035;-73
2023/04/10 02:11:57;;;;;;;21.50;10.55;;;10.00;99.90;;;;;;5094339;28;20024;-73
2023/04/10 02:14:27;;;;;;;19.95;10.82;;;10.00;99.90;;;;;;5094941;28;20081;-73
2023/04/10 02:16:54;;;;;;;21.55;10.55;;;10.00;99.90;;;;;;5094504;28;20032;-73
2023/04/10 02:19:22;;;;;;;19.90;10.25;;;10.00;99.90;;;;;;5094363;28;20031;-73
2023/04/10 02:21:50;;;;;;;20.30;10.73;;;9.90;99.90;;;;;;5094398;28;20035;-73
2023/04/10 02:24:16;;;;;;;24.05;10.73;;;9.90;99.90;;;;;;5094229;28;20020;-73
2023/04/10 02:26:47;;;;;;;21.73;11.20;;;9.90;99.90;;;;;;5094274;28;20047;-73
2023/04/10 02:29:13;;;;;;;21.88;10.35;;;9.90;99.90;;;;;;5094230;28;20024;-73
2023/04/10 02:31:42;;;;;;;21.92;11.13;;;9.90;99.90;;;;;;5094686;28;20475;-73
2023/04/10 02:34:08;;;;;;;21.00;10.27;;;9.90;99.90;;;;;;5094275;28;20051;-73
2023/04/10 02:36:37;;;;;;;19.65;9.60;;;9.80;99.90;;;;;;5093637;28;20452;-73
2023/04/10 02:39:04;;;;;;;22.63;10.35;;;9.80;99.90;;;;;;5094188;28;20035;-73
2023/04/10 02:41:30;;;;;;;20.90;10.73;;;9.80;99.90;;;;;;5094396;28;20066;-73
2023/04/10 02:43:55;;;;;;;22.55;10.18;;;9.80;99.90;;;;;;5093966;28;20027;-74
2023/04/10 02:46:21;;;;;;;19.38;9.38;;;9.80;99.90;;;;;;5092999;28;20499;-73
2023/04/10 02:48:47;;;;;;;20.92;10.07;;;9.80;99.90;;;;;;5093730;28;20032;-73
2023/04/10 02:51:13;;;;;;;20.80;10.05;;;9.80;99.90;;;;;;5093827;28;20363;-73
2023/04/10 02:53:39;;;;;;;20.23;9.23;;;9.80;99.90;;;;;;5093852;28;20020;-73
2023/04/10 02:56:10;;;;;;;23.33;10.20;;;9.80;99.90;;;;;;5093762;28;20414;-74
2023/04/10 02:58:36;;;;;;;20.73;9.60;;;9.80;99.90;;;;;;5093718;28;20067;-73
2023/04/10 03:01:02;;;;;;;22.73;9.77;;;9.80;99.90;;;;;;5093593;28;20067;-73
2023/04/10 03:03:27;;;;;;;20.10;9.98;;;9.80;99.90;;;;;;5093723;28;20024;-73
2023/04/10 03:05:53;;;;;;;19.95;10.27;;;9.80;99.90;;;;;;5093194;28;20094;-73
2023/04/10 03:08:18;;;;;;;20.40;9.93;;;9.80;99.90;;;;;;5093815;28;20093;-74
2023/04/10 03:10:47;;;;;;;20.42;10.45;;;9.70;99.90;;;;;;5093507;28;20517;-73
2023/04/10 03:13:13;;;;;;;20.85;9.55;;;9.70;99.90;;;;;;5093553;28;20155;-73
2023/04/10 03:15:39;;;;;;;19.08;9.43;;;9.70;99.90;;;;;;5093463;28;20111;-73
2023/04/10 03:18:05;;;;;;;19.40;9.48;;;9.70;99.90;;;;;;5093157;28;20112;-74
2023/04/10 03:20:31;;;;;;;20.40;9.85;;;9.70;99.90;;;;;;5093417;28;20084;-73
2023/04/10 03:23:00;;;;;;;18.75;9.60;;;9.70;99.90;;;;;;5093745;28;20078;-73
2023/04/10 03:25:26;;;;;;;19.88;9.93;;;9.70;99.90;;;;;;5093226;28;20137;-73
2023/04/10 03:27:52;;;;;;;18.88;8.93;;;9.70;99.90;;;;;;5092981;28;20136;-74
2023/04/10 03:30:17;;;;;;;20.30;9.65;;;9.70;99.90;;;;;;5093307;28;20103;-73
2023/04/10 03:32:43;;;;;;;22.15;10.25;;;9.70;99.90;;;;;;5092917;28;20024;-74
2023/04/10 03:35:09;;;;;;;21.20;8.45;;;9.70;99.90;;;;;;5093755;28;20024;-73
2023/04/10 03:37:35;;;;;;;22.42;9.80;;;9.70;99.90;;;;;;5093571;28;20043;-73
2023/04/10 03:40:04;;;;;;;18.83;9.23;;;9.70;99.90;;;;;;5093296;28;20032;-73
2023/04/10 03:42:30;;;;;;;18.70;8.95;;;9.70;99.90;;;;;;5093159;28;20543;-74
2023/04/10 03:44:55;;;;;;;18.33;8.52;;;9.70;99.90;;;;;;5093315;28;20054;-73
2023/04/10 03:47:21;;;;;;;20.63;9.48;;;9.70;99.90;;;;;;5093170;28;20028;-74
2023/04/10 03:49:46;;;;;;;18.58;9.30;;;9.70;99.90;;;;;;5093248;28;20028;-74
2023/04/10 03:52:12;;;;;;;21.20;11.18;;;9.70;99.90;;;;;;5093194;28;20069;-73
2023/04/10 03:54:37;;;;;;;19.13;8.27;;;9.70;99.90;;;;;;5093424;28;20063;-73
2023/04/10 03:57:03;;;;;;;19.60;10.02;;;9.70;99.90;;;;;;5093551;28;20446;-73
2023/04/10 03:59:32;;;;;;;18.50;9.55;;;9.80;99.90;;;;;;5097042;28;20479;-73
2023/04/10 04:01:58;;;;;;;15.52;8.93;;;9.80;99.90;;;;;;5097257;28;20028;-74
2023/04/10 04:04:25;;;;;;;19.13;8.85;;;9.80;99.90;;;;;;5097848;28;20028;-74
2023/04/10 04:06:51;;;;;;;16.52;8.05;;;9.80;99.90;;;;;;5097485;28;20032;-74
2023/04/10 04:09:17;;;;;;;17.17;8.73;;;9.80;99.90;;;;;;5097954;28;20525;-74
2023/04/10 04:11:43;;;;;;;13.77;6.55;;;9.80;99.90;;;;;;5097009;28;20067;-75
2023/04/10 04:14:08;;;;;;;18.25;8.90;;;9.80;99.90;;;;;;5097764;28;20056;-74
2023/04/10 04:16:34;;;;;;;17.40;8.68;;;9.80;99.90;;;;;;5097379;28;20059;-74
2023/04/10 04:18:59;;;;;;;19.20;8.60;;;9.80;99.90;;;;;;5097528;28;20035;-74
2023/04/10 04:21:25;;;;;;;15.23;7.95;;;9.80;99.90;;;;;;5097506;28;20024;-74
2023/04/10 04:23:50;;;;;;;17.65;7.90;;;9.90;99.90;;;;;;5097436;28;20039;-74
2023/04/10 04:26:16;;;;;;;14.95;7.30;;;9.90;99.90;;;;;;5096911;28;20051;-74
2023/04/10 04:28:41;;;;;;;16.20;7.63;;;9.90;99.90;;;;;;5097021;28;20035;-74
2023/04/10 04:31:07;;;;;;;17.92;8.23;;;9.90;99.90;;;;;;5096965;28;20099;-74
2023/04/10 04:33:33;;;;;;;15.40;7.40;;;9.90;99.90;;;;;;5096869;28;20051;-74
2023/04/10 04:35:58;;;;;;;20.50;8.75;;;9.90;99.90;;;;;;5097022;28;20372;-75
2023/04/10 04:38:24;;;;;;;15.80;7.45;;;9.90;99.90;;;;;;5096822;28;20046;-74
2023/04/10 04:40:49;;;;;;;16.83;7.60;;;9.90;99.90;;;;;;5096731;28;20073;-74
2023/04/10 04:43:15;;;;;;;17.92;7.82;;;9.90;99.90;;;;;;5096751;28;20078;-75
2023/04/10 04:45:40;;;;;;;14.73;6.35;;;9.90;99.90;;;;;;5096361;28;20024;-74
2023/04/10 04:48:06;;;;;;;15.32;7.82;;;9.90;99.90;;;;;;5096463;28;20502;-74
2023/04/10 04:50:31;;;;;;;13.25;5.88;;;10.00;99.90;;;;;;5096414;28;20052;-74
2023/04/10 04:52:59;;;;;;;14.70;6.82;;;9.90;99.90;;;;;;5096554;28;20027;-74
2023/04/10 04:55:24;;;;;;;14.05;6.88;;;10.00;99.90;;;;;;5096505;28;20070;-74
2023/04/10 04:57:50;;;;;;;16.05;8.05;;;9.90;99.90;;;;;;5096274;28;20044;-74
2023/04/10 05:00:16;;;;;;;12.85;6.63;;;10.00;99.90;;;;;;5096221;28;20108;-74
2023/04/10 05:02:41;;;;;;;16.65;7.30;;;10.00;99.90;;;;;;5096385;28;20028;-73
2023/04/10 05:05:07;;;;;;;13.32;7.28;;;10.00;99.90;;;;;;5096433;28;20090;-75
2023/04/10 05:07:33;;;;;;;12.45;5.30;;;10.10;99.90;;;;;;5096556;28;20016;-74
2023/04/10 05:09:58;;;;;;;16.13;7.22;;;10.10;99.90;;;;;;5096444;28;20020;-74
2023/04/10 05:12:24;;;;;;;15.80;7.13;;;10.10;99.90;;;;;;5096142;28;20039;-75
2023/04/10 05:14:50;;;;;;;14.90;7.20;;;10.10;99.90;;;;;;5095630;28;20049;-74
2023/04/10 05:17:15;;;;;;;16.88;8.30;;;10.20;99.90;;;;;;5095726;28;20476;-73
2023/04/10 05:19:41;;;;;;;15.30;6.85;;;10.20;99.90;;;;;;5096019;28;20032;-74
2023/04/10 05:22:07;;;;;;;15.75;7.18;;;10.20;99.90;;;;;;5094641;28;20028;-74
2023/04/10 05:24:32;;;;;;;18.70;8.40;;;10.30;99.90;;;;;;5095526;28;20027;-74
2023/04/10 05:26:58;;;;;;;15.52;7.75;;;10.30;99.90;;;;;;5095461;28;20048;-74
2023/04/10 05:29:23;;;;;;;12.70;7.13;;;10.40;99.90;;;;;;5095687;28;20112;-74
2023/04/10 05:31:50;;;;;;;14.88;7.07;;;10.40;99.90;;;;;;5095302;28;20052;-74
2023/04/10 05:34:16;;;;;;;13.57;7.13;;;10.40;99.90;;;;;;5095686;28;20081;-73
2023/04/10 05:36:41;;;;;;;15.02;7.07;;;10.40;99.90;;;;;;5096086;28;20024;-74
2023/04/10 05:39:07;;;;;;;15.55;7.30;;;10.50;99.90;;;;;;5095477;28;20078;-74
2023/04/10 05:41:33;;;;;;;15.70;7.95;;;10.50;99.90;;;;;;5095443;28;20386;-74
2023/04/10 05:43:58;;;;;;;13.48;6.97;;;10.50;99.90;;;;;;5095062;28;20035;-74
2023/04/10 05:46:24;;;;;;;15.05;7.03;;;10.60;99.90;;;;;;5095269;28;20016;-74
2023/04/10 05:48:50;;;;;;;15.13;7.10;;;10.60;99.90;;;;;;5095682;28;20073;-74
2023/04/10 05:51:15;;;;;;;17.48;7.38;;;10.70;99.90;;;;;;5094066;28;20020;-74
2023/04/10 05:53:41;;;;;;;14.38;7.05;;;10.70;99.90;;;;;;5095392;28;20028;-74
2023/04/10 05:56:07;;;;;;;14.70;7.40;;;10.70;99.90;;;;;;5093471;28;20031;-74
2023/04/10 05:58:32;;;;;;;12.93;6.82;;;10.80;99.90;;;;;;5074914;28;20040;-73
2023/04/10 06:00:58;;;;;;;14.52;7.00;;;10.80;99.90;;;;;;5075071;28;20020;-74
2023/04/10 06:03:26;;;;;;;16.38;7.75;;;10.80;99.90;;;;;;5075097;28;20024;-74
2023/04/10 06:05:52;;;;;;;14.77;7.20;;;10.80;99.90;;;;;;5074925;28;20032;-73
2023/04/10 06:08:18;;;;;;;16.20;8.25;;;10.80;99.90;;;;;;5074623;28;20024;-73
2023/04/10 06:10:47;;;;;;;13.15;7.00;;;10.80;99.90;;;;;;5074706;28;20099;-73
2023/04/10 06:13:13;;;;;;;15.32;7.80;;;10.80;99.90;;;;;;5074558;28;20025;-73
2023/04/10 06:15:39;;;;;;;15.07;7.20;;;10.80;99.90;;;;;;5074696;28;20024;-73
2023/04/10 06:18:05;;;;;;;16.70;7.80;;;10.90;99.90;;;;;;5074443;28;20396;-73
2023/04/10 06:20:30;;;;;;;16.35;8.25;;;10.80;99.90;;;;;;5074185;28;20081;-73
2023/04/10 06:22:57;;;;;;;15.40;7.72;;;10.90;99.90;;;;;;5074472;28;20024;-74
2023/04/10 06:25:23;;;;;;;15.18;7.43;;;10.90;99.90;;;;;;5074480;28;20491;-73
2023/04/10 06:27:49;;;;;;;15.63;7.32;;;10.90;99.90;;;;;;5074440;28;20060;-73
2023/04/10 06:30:15;;;;;;;12.85;6.63;;;11.00;99.90;;;;;;5074470;28;20055;-73
2023/04/10 06:32:40;;;;;;;17.85;6.88;;;11.00;99.90;;;;;;5074176;28;20028;-73
2023/04/10 06:35:06;;;;;;;15.90;7.38;;;11.10;99.90;;;;;;5074974;28;20031;-73
2023/04/10 06:37:32;;;;;;;19.08;8.50;;;11.10;99.90;;;;;;5093006;28;20032;-74
2023/04/10 06:40:05;;;;;;;16.73;7.90;;;11.20;99.90;;;;;;5093126;28;20438;-73
2023/04/10 06:42:31;;;;;;;16.48;8.32;;;11.30;99.90;;;;;;5090802;28;20035;-74
2023/04/10 06:44:57;;;;;;;13.63;6.97;;;11.30;99.90;;;;;;5093034;28;20020;-73
2023/04/10 06:47:22;;;;;;;16.25;7.50;;;11.40;99.90;;;;;;5091524;28;20468;-73
2023/04/10 06:49:48;;;;;;;16.95;8.45;;;11.50;99.90;;;;;;5093102;28;20031;-74
2023/04/10 06:52:13;;;;;;;18.05;8.25;;;11.60;99.90;;;;;;5092527;28;20486;-73
2023/04/10 06:54:39;;;;;;;15.30;7.25;;;11.60;99.90;;;;;;5092837;28;20095;-75
2023/04/10 06:57:05;;;;;;;14.80;7.57;;;11.70;99.90;;;;;;5092633;28;20081;-73
2023/04/10 06:59:32;;;;;;;14.05;6.88;;;11.80;99.90;;;;;;5092828;28;20027;-76
2023/04/10 07:01:58;;;;;;;14.43;6.93;;;11.80;99.90;;;;;;5092740;28;20028;-75
2023/04/10 07:04:24;;;;;;;17.15;8.32;;;12.00;99.90;;;;;;5092481;28;20053;-76
2023/04/10 07:06:50;;;;;;;18.65;9.35;;;12.10;99.90;;;;;;5092471;28;20457;-76
2023/04/10 07:09:15;;;;;;;14.55;6.95;;;12.30;99.90;;;;;;5092687;28;20071;-76
2023/04/10 07:11:41;;;;;;;14.63;6.95;;;12.40;99.90;;;;;;5092055;28;20058;-75
2023/04/10 07:14:06;;;;;;;20.40;10.55;;;12.60;99.90;;;;;;5089540;28;20039;-76
2023/04/10 07:16:32;;;;;;;14.35;6.93;;;12.70;99.90;;;;;;5092212;28;20020;-75
2023/04/10 07:18:57;;;;;;;16.92;8.35;;;12.80;99.90;;;;;;5092356;28;20032;-74
2023/04/10 07:21:23;;;;;;;15.15;7.68;;;12.90;99.90;;;;;;5092335;28;20515;-74
2023/04/10 07:23:48;;;;;;;16.23;8.10;;;12.90;99.90;;;;;;5092391;28;20372;-74
2023/04/10 07:26:14;;;;;;;14.63;6.88;;;13.00;99.90;;;;;;5091744;28;20048;-75
2023/04/10 07:28:40;;;;;;;12.77;6.53;;;13.10;99.90;;;;;;5092319;28;20020;-75
2023/04/10 07:31:07;;;;;;;12.20;6.00;;;13.10;99.90;;;;;;5091998;28;20042;-73
2023/04/10 07:33:32;;;;;;;11.85;5.90;;;13.00;99.90;;;;;;5091345;28;20028;-73
2023/04/10 07:35:58;;;;;;;13.55;5.72;;;12.90;99.90;;;;;;5091988;28;20035;-73
2023/04/10 07:38:24;;;;;;;13.80;6.85;;;12.80;99.90;;;;;;5091976;28;20032;-73
2023/04/10 07:40:55;;;;;;;15.77;7.60;;;12.80;99.90;;;;;;5091559;28;20705;-73
2023/04/10 07:43:20;;;;;;;16.02;7.63;;;12.90;99.90;;;;;;5092070;28;20460;-72
2023/04/10 07:45:46;;;;;;;15.18;7.32;;;13.00;99.90;;;;;;5093202;28;20030;-75
2023/04/10 07:48:12;;;;;;;12.85;6.32;;;13.10;99.90;;;;;;5093421;28;20034;-74
2023/04/10 07:50:37;;;;;;;13.55;6.60;;;13.20;99.90;;;;;;5093399;28;20042;-74
2023/04/10 07:53:06;;;;;;;16.98;7.25;;;13.30;99.90;;;;;;5093213;28;20039;-73
2023/04/10 07:55:44;;;;;;;12.10;6.35;;;13.40;99.90;;;;;;5092946;28;20448;-75
2023/04/10 07:58:09;;;;;;;14.98;7.10;;;13.40;99.90;;;;;;5092050;28;20388;-73
2023/04/10 08:00:35;;;;;;;12.55;6.30;;;13.40;99.90;;;;;;5093010;28;20024;-75
2023/04/10 08:03:01;;;;;;;13.55;7.00;;;13.40;99.90;;;;;;5093055;28;20032;-75
2023/04/10 08:05:29;;;;;;;14.43;6.15;;;13.40;99.90;;;;;;5093259;28;20020;-75
2023/04/10 08:07:55;;;;;;;15.38;6.32;;;13.40;99.90;;;;;;5092538;28;20039;-73
2023/04/10 08:10:20;;;;;;;13.27;6.55;;;13.40;99.90;;;;;;5093227;28;20020;-73
2023/04/10 08:12:46;;;;;;;13.50;6.82;;;13.40;99.90;;;;;;5093318;28;20024;-73
2023/04/10 08:15:11;;;;;;;13.27;6.47;;;13.40;99.90;;;;;;5087400;28;20032;-73
2023/04/10 08:17:37;;;;;;;15.15;6.75;;;13.30;99.90;;;;;;5073319;28;20033;-73
2023/04/10 08:20:03;;;;;;;15.45;7.43;;;13.30;99.90;;;;;;5078481;28;20039;-74
2023/04/10 08:22:29;;;;;;;13.20;6.53;;;13.30;99.90;;;;;;5092952;28;20031;-74
2023/04/10 08:24:55;;;;;;;12.27;6.55;;;13.30;99.90;;;;;;5092764;28;20407;-74
2023/04/10 08:27:20;;;;;;;11.98;5.97;;;13.30;99.90;;;;;;5092644;28;20051;-74
2023/04/10 08:29:46;;;;;;;12.30;6.38;;;13.30;99.90;;;;;;5092802;28;20380;-74
2023/04/10 08:32:11;;;;;;;15.27;7.18;;;13.20;99.90;;;;;;5092818;28;20059;-75
2023/04/10 08:34:37;;;;;;;11.13;5.97;;;13.20;99.90;;;;;;5092695;28;20020;-75
2023/04/10 08:37:08;;;;;;;15.57;8.05;;;13.10;99.90;;;;;;5091916;28;20392;-74
2023/04/10 08:39:35;;;;;;;11.27;5.57;;;13.20;99.90;;;;;;5091669;28;20031;-74
2023/04/10 08:42:01;;;;;;;14.50;7.10;;;13.20;99.90;;;;;;5092506;28;20380;-74
2023/04/10 08:44:27;;;;;;;13.68;7.38;;;13.30;99.90;;;;;;5095465;28;20039;-74
2023/04/10 08:46:58;;;;;;;13.40;7.15;;;13.40;99.90;;;;;;5096536;28;20024;-74
2023/04/10 08:49:25;;;;;;;14.98;7.35;;;13.50;99.90;;;;;;5096399;28;20016;-74
2023/04/10 08:51:55;;;;;;;15.55;7.75;;;13.70;99.90;;;;;;5096576;28;20031;-75
2023/04/10 08:54:27;;;;;;;13.75;7.05;;;13.80;99.90;;;;;;5096049;28;20024;-75
2023/04/10 08:56:54;;;;;;;16.10;7.03;;;13.90;99.90;;;;;;5095780;28;20491;-74
2023/04/10 08:59:20;;;;;;;12.25;5.82;;;14.10;99.90;;;;;;5096012;28;20027;-74
2023/04/10 09:01:46;;;;;;;15.00;7.32;;;14.30;99.90;;;;;;5095782;28;20030;-74
2023/04/10 09:04:12;;;;;;;13.38;7.10;;;14.50;99.90;;;;;;5094399;28;20087;-75
2023/04/10 09:06:38;;;;;;;14.18;7.78;;;14.70;99.80;;;;;;5095865;28;20063;-74
2023/04/10 09:09:07;;;;;;;12.30;5.43;;;14.80;99.70;;;;;;5086443;28;20070;-75
2023/04/10 09:11:51;;;;;;;11.60;5.32;;;15.00;99.30;;;;;;5086263;28;20060;-74
2023/04/10 09:14:28;;;;;;;12.27;6.60;;;15.30;98.60;;;;;;5094991;28;20024;-74
2023/04/10 09:17:11;;;;;;;11.82;5.57;;;15.40;98.50;;;;;;5095855;28;20471;-75
2023/04/10 09:19:37;;;;;;;13.77;6.90;;;15.70;98.30;;;;;;5095986;28;20032;-74
2023/04/10 09:22:03;;;;;;;14.63;7.28;;;15.90;98.20;;;;;;5095760;28;20032;-74
2023/04/10 09:24:28;;;;;;;13.93;7.43;;;16.20;97.80;;;;;;5095565;28;20024;-75
2023/04/10 09:26:54;;;;;;;14.27;5.90;;;16.50;97.40;;;;;;5096287;28;20052;-73
2023/04/10 09:29:20;;;;;;;13.90;7.40;;;16.70;96.70;;;;;;5115856;28;20149;-76
2023/04/10 09:31:46;;;;;;;13.82;7.85;;;16.50;96.80;;;;;;5115999;28;20051;-72
2023/04/10 09:34:16;;;;;;;13.60;7.18;;;16.40;97.30;;;;;;5115844;28;20027;-75
2023/04/10 09:37:00;;;;;;;12.38;6.82;;;16.40;97.00;;;;;;5115768;28;20024;-73
2023/04/10 09:39:33;;;;;;;13.98;7.30;;;16.50;97.20;;;;;;5115999;28;20031;-73
2023/04/10 09:41:59;;;;;;;11.45;6.25;;;16.60;97.00;;;;;;5115944;28;20108;-74
2023/04/10 09:44:32;;;;;;;11.77;6.15;;;16.60;96.70;;;;;;5115842;28;20413;-75
2023/04/10 09:47:20;;;;;;;12.60;6.90;;;16.60;96.90;;;;;;5115478;28;20043;-75
2023/04/10 09:49:49;;;;;;;12.25;6.40;;;16.50;96.90;;;;;;5115505;28;20059;-74
2023/04/10 09:52:25;;;;;;;13.48;7.50;;;16.60;96.80;;;;;;5115694;28;20030;-75
2023/04/10 09:54:52;;;;;;;11.88;6.72;;;16.50;96.90;;;;;;5115023;27;20523;-74
2023/04/10 09:57:20;;;;;;;12.65;7.30;;;16.30;97.10;;;;;;5115319;28;20027;-74
2023/04/10 09:59:52;;;;;;;15.77;8.32;;;16.20;97.30;;;;;;5115518;28;20438;-74
2023/04/10 10:02:18;;;;;;;;;;;16.20;97.50;;;;;;5116115;28;20031;-75
2023/04/10 10:04:47;;;;;;;14.27;7.47;;;16.20;97.50;;;;;;5115763;28;19911;-75
2023/04/10 10:07:21;;;;;;;12.90;7.13;;;16.10;97.60;;;;;;5115487;28;20046;-75
2023/04/10 10:09:51;;;;;;;13.98;7.63;;;16.10;97.70;;;;;;5099680;28;20032;-75
2023/04/10 10:12:36;;;;;;;12.73;6.47;;;16.10;97.60;;;;;;5083010;28;20115;-75
2023/04/10 10:15:13;;;;;;;13.80;6.90;;;16.00;97.60;;;;;;5074421;28;20021;-75
2023/04/10 10:17:50;;;;;;;11.50;6.60;;;16.10;97.60;;;;;;5074346;28;20082;-75
2023/04/10 10:20:18;;;;;;;13.68;6.82;;;16.10;97.90;;;;;;5074352;28;20119;-75
2023/04/10 10:22:45;;;;;;;13.25;7.47;;;16.60;97.60;;;;;;5074366;28;20111;-75
2023/04/10 10:25:12;;;;;;;12.15;6.60;;;17.20;96.70;;;;;;5074068;28;20151;-75
2023/04/10 10:27:40;;;;;;;13.68;7.45;;;17.80;96.10;;;;;;5074038;28;20053;-75
2023/04/10 10:30:08;;;;;;;15.95;7.43;;;18.30;95.30;;;;;;5074122;28;20031;-75
2023/04/10 10:32:35;;;;;;;15.98;8.00;;;18.70;94.80;;;;;;5074133;28;20477;-75
2023/04/10 10:35:02;;;;;;;18.27;9.30;;;18.50;94.80;;;;;;5074376;28;20457;-75
2023/04/10 10:37:29;;;;;;;15.43;7.65;;;18.30;94.70;;;;;;5073853;28;20376;-74
2023/04/10 10:40:06;;;;;;;17.52;9.27;;;18.20;94.90;;;;;;5074054;28;20032;-75
2023/04/10 10:42:47;;;;;;;18.55;9.68;;;17.90;95.10;;;;;;5074165;28;20043;-74
2023/04/10 10:45:20;;;;;;;19.58;10.13;;;18.00;95.10;;;;;;5074519;28;20025;-75
2023/04/10 10:47:51;;;;;;;20.63;11.48;;;18.00;95.10;;;;;;5074336;28;20040;-74
2023/04/10 10:50:17;;;;;;;22.20;10.55;;;17.90;95.50;;;;;;5073756;28;20099;-74
2023/04/10 10:52:50;;;;;;;23.73;12.18;;;18.00;95.30;;;;;;5073725;28;20031;-75
2023/04/10 10:55:24;;;;;;;21.13;10.63;;;18.00;95.40;;;;;;5073777;28;20047;-74
2023/04/10 10:57:51;;;;;;;21.33;10.43;;;18.00;95.50;;;;;;5082069;28;20031;-75
2023/04/10 11:00:17;;;;;;;20.10;10.95;;;18.10;95.30;;;;;;5076744;28;20056;-75
2023/04/10 11:02:42;;;;;;;16.20;8.40;;;18.20;95.30;;;;;;5073570;28;20068;-75
2023/04/10 11:05:08;;;;;;;13.38;7.38;;;18.30;95.00;;;;;;5073669;28;20025;-75
2023/04/10 11:08:06;;;;;;;17.08;9.00;;;18.30;94.90;;;;;;5072865;28;20032;-75
2023/04/10 11:11:01;;;;;;;17.92;8.73;;;18.20;95.20;;;;;;5073922;28;20028;-75
2023/04/10 11:13:26;;;;;;;21.80;11.63;;;18.20;95.20;;;;;;5073963;28;20058;-75
2023/04/10 11:15:55;;;;;;;18.35;9.38;;;18.00;95.40;;;;;;5073428;28;20392;-75
2023/04/10 11:18:47;;;;;;;16.88;8.32;;;18.10;95.30;;;;;;5073208;28;20043;-75
2023/04/10 11:21:18;;;;;;;19.52;10.38;;;18.20;95.50;;;;;;5073198;28;20115;-75
2023/04/10 11:23:51;;;;;;;20.25;10.02;;;18.30;95.30;;;;;;5073332;28;20060;-75
2023/04/10 11:26:32;;;;;;;19.23;10.80;;;18.50;95.40;;;;;;5072926;28;20431;-75
2023/04/10 11:28:58;;;;;;;21.25;11.35;;;18.70;95.10;;;;;;5073467;28;20460;-75
2023/04/10 11:31:24;;;;;;;21.88;11.57;;;18.70;95.10;;;;;;5073195;28;20028;-74
2023/04/10 11:34:00;;;;;;;21.83;12.05;;;18.80;95.10;;;;;;5073560;28;20104;-74
2023/04/10 11:36:26;;;;;;;19.13;9.70;;;18.80;95.20;;;;;;5073368;28;20036;-76
2023/04/10 11:39:08;;;;;;;19.42;11.30;;;18.80;95.10;;;;;;5073235;28;20037;-75
2023/04/10 11:41:37;;;;;;;18.42;9.95;;;18.60;95.30;;;;;;5073250;28;20031;-75
2023/04/10 11:44:05;;;;;;;19.98;10.75;;;18.30;95.50;;;;;;5072452;28;20029;-76
2023/04/10 11:46:36;;;;;;;17.00;8.93;;;18.20;95.80;;;;;;5072404;28;20032;-76
2023/04/10 11:49:03;;;;;;;17.27;9.82;;;17.90;96.00;;;;;;5073233;28;20024;-74
2023/04/10 11:51:30;;;;;;;20.35;10.32;;;17.60;96.50;;;;;;5073199;28;20032;-76
2023/04/10 11:54:14;;;;;;;17.77;9.30;;;17.40;96.80;;;;;;5090220;28;20039;-74
2023/04/10 11:56:43;;;;;;;21.25;11.25;;;17.20;96.90;;;;;;5093364;28;20031;-76
2023/04/10 11:59:09;;;;;;;19.55;9.85;;;17.00;97.10;;;;;;5093047;28;20097;-75
2023/04/10 12:01:36;;;;;;;19.17;9.20;;;16.80;97.50;;;;;;5093286;28;20345;-76
2023/04/10 12:04:02;;;;;;;14.10;7.97;;;16.60;97.70;;;;;;5093655;28;20032;-75
2023/04/10 12:06:28;;;;;;;19.77;9.60;;;16.50;98.00;;;;;;5093108;28;20081;-76
2023/04/10 12:08:54;;;;;;;19.00;9.40;;;16.30;98.40;;;;;;5083622;28;20108;-76
2023/04/10 12:11:24;;;;;;;16.67;9.23;;;16.20;98.60;;;;;;5072377;28;20021;-74
2023/04/10 12:13:54;;;;;;;17.75;9.30;;;16.10;98.80;;;;;;5072463;28;20388;-76
2023/04/10 12:16:20;;;;;;;15.38;8.18;;;16.10;99.00;;;;;;5072971;28;20075;-74
2023/04/10 12:18:47;;;;;;;13.05;6.28;;;16.00;99.10;;;;;;5074652;28;20036;-75
2023/04/10 12:21:13;;;;;;;16.27;8.57;;;15.90;99.20;;;;;;5076980;28;20499;-74
2023/04/10 12:23:38;;;;;;;15.43;8.00;;;15.80;99.80;;;;;;5076549;28;20029;-73
2023/04/10 12:26:15;;;;;;;12.93;7.43;;;15.80;99.90;;;;;;5076452;28;20024;-74
2023/04/10 12:28:49;;;;;;;10.57;6.03;;;15.70;99.90;;;;;;5080011;28;20024;-74
2023/04/10 12:31:15;;;;;;;12.00;6.72;;;15.70;99.90;;;;;;5095506;28;20027;-74
2023/04/10 12:33:48;;;;;;;12.82;6.00;;;15.60;99.90;;;;;;5074611;28;20136;-75
2023/04/10 12:36:29;;;;;;;15.68;7.95;;;15.60;99.90;;;;;;5092893;28;20424;-75
2023/04/10 12:38:55;;;;;;;14.95;7.03;;;15.50;99.90;;;;;;5077191;28;20043;-74
2023/04/10 12:41:25;;;;;;;14.23;7.20;;;15.40;99.90;;;;;;5080365;28;20060;-73